createdAt,value
2023-05-05T00:01:34.348Z,33.30
2023-05-05T00:04:37.075Z,32.20
2023-05-05T00:07:39.800Z,31.30
2023-05-05T00:10:45.787Z,30.10
2023-05-05T00:13:48.575Z,36.30
2023-05-05T00:16:51.381Z,31.80
2023-05-05T00:19:54.206Z,31.50
2023-05-05T00:22:57.029Z,27.10
2023-05-05T00:25:59.786Z,27.40
2023-05-05T00:29:02.590Z,28.90
2023-05-05T00:32:05.449Z,30.60
2023-05-05T00:35:08.919Z,30.10
2023-05-05T00:38:11.689Z,29.00
2023-05-05T00:41:14.530Z,28.70
2023-05-05T00:44:17.263Z,28.10
2023-05-05T00:47:20.399Z,26.60
2023-05-05T00:50:26.806Z,25.90
2023-05-05T00:53:29.856Z,27.30
2023-05-05T00:56:33.287Z,25.00
2023-05-05T00:59:37.461Z,27.00
2023-05-05T01:02:41.440Z,26.40
2023-05-05T01:06:04.648Z,31.30
2023-05-05T01:09:20.564Z,30.80
2023-05-05T01:12:44.785Z,29.80
2023-05-05T01:15:53.515Z,27.60
2023-05-05T01:19:24.407Z,25.50
2023-05-05T01:22:52.668Z,26.80
2023-05-05T01:26:11.903Z,28.60
2023-05-05T01:29:52.633Z,27.40
2023-05-05T01:33:01.280Z,28.00
2023-05-05T01:36:10.653Z,25.40
2023-05-05T01:39:16.852Z,26.10
2023-05-05T01:42:22.692Z,26.90
2023-05-05T01:45:32.205Z,26.50
2023-05-05T01:48:37.002Z,26.70
2023-05-05T01:51:41.464Z,25.00
2023-05-05T01:54:46.633Z,24.80
2023-05-05T01:57:50.850Z,23.90
2023-05-05T02:00:56.733Z,23.80
2023-05-05T02:04:02.302Z,23.20
2023-05-05T02:07:06.291Z,21.10
2023-05-05T02:10:12.358Z,21.30
2023-05-05T02:13:17.448Z,21.20
2023-05-05T02:16:22.120Z,22.60
2023-05-05T02:19:30.988Z,21.90
2023-05-05T02:22:34.178Z,20.20
2023-05-05T02:25:44.198Z,18.80
2023-05-05T02:28:52.844Z,17.20
2023-05-05T02:32:02.511Z,18.30
2023-05-05T02:35:14.308Z,19.30
2023-05-05T02:38:19.563Z,26.00
2023-05-05T02:41:27.590Z,30.90
2023-05-05T02:44:33.145Z,29.30
2023-05-05T02:47:37.273Z,28.30
2023-05-05T02:50:41.389Z,28.50
2023-05-05T02:53:56.360Z,29.00
2023-05-05T02:57:00.592Z,29.20
2023-05-05T03:00:24.115Z,29.80
2023-05-05T03:03:55.995Z,29.90
2023-05-05T03:07:06.956Z,26.60
2023-05-05T03:10:17.734Z,21.30
2023-05-05T03:13:26.951Z,19.80
2023-05-05T03:16:32.176Z,19.80
2023-05-05T03:19:36.327Z,20.40
2023-05-05T03:22:39.360Z,18.50
2023-05-05T03:25:45.037Z,19.30
2023-05-05T03:28:52.672Z,17.80
2023-05-05T03:32:01.553Z,19.30
2023-05-05T03:35:05.508Z,19.70
2023-05-05T03:38:09.212Z,20.20
2023-05-05T03:41:12.017Z,19.70
2023-05-05T03:44:14.801Z,21.20
2023-05-05T03:47:17.654Z,21.10
2023-05-05T03:50:21.080Z,18.50
2023-05-05T03:53:24.730Z,19.40
2023-05-05T03:56:27.609Z,19.50
2023-05-05T03:59:30.409Z,20.80
2023-05-05T04:02:33.351Z,22.80
2023-05-05T04:05:38.063Z,23.70
2023-05-05T04:08:41.433Z,27.10
2023-05-05T04:11:44.232Z,36.70
2023-05-05T04:14:47.785Z,40.40
2023-05-05T04:17:50.898Z,33.50
2023-05-05T04:20:53.995Z,31.20
2023-05-05T04:23:58.496Z,34.80
2023-05-05T04:27:02.415Z,32.90
2023-05-05T04:30:06.902Z,27.70
2023-05-05T04:33:10.832Z,28.50
2023-05-05T04:36:13.788Z,29.90
2023-05-05T04:39:17.510Z,27.20
2023-05-05T04:42:20.388Z,28.70
2023-05-05T04:45:23.231Z,29.20
2023-05-05T04:48:26.210Z,28.10
2023-05-05T04:51:29.275Z,29.50
2023-05-05T04:54:36.415Z,32.80
2023-05-05T04:57:39.293Z,32.20
2023-05-05T05:00:42.380Z,30.70
2023-05-05T05:03:45.292Z,30.50
2023-05-05T05:06:48.407Z,29.50
2023-05-05T05:09:51.600Z,28.50
2023-05-05T05:12:54.513Z,27.20
2023-05-05T05:15:57.526Z,24.70
2023-05-05T05:19:01.638Z,25.10
2023-05-05T05:22:06.146Z,26.40
2023-05-05T05:25:10.490Z,27.90
2023-05-05T05:28:13.308Z,28.90
2023-05-05T05:31:21.129Z,28.40
2023-05-05T05:34:24.219Z,29.10
2023-05-05T05:37:31.143Z,26.60
2023-05-05T05:40:34.703Z,17.40
2023-05-05T05:43:38.085Z,13.60
2023-05-05T05:46:41.258Z,12.80
2023-05-05T05:49:44.190Z,11.60
2023-05-05T05:52:47.492Z,11.70
2023-05-05T05:55:51.320Z,12.00
2023-05-05T05:58:54.144Z,12.70
2023-05-05T06:01:57.328Z,11.90
2023-05-05T06:05:00.721Z,13.10
2023-05-05T06:08:03.861Z,13.40
2023-05-05T06:11:08.118Z,12.20
2023-05-05T06:14:10.962Z,12.40
2023-05-05T06:17:14.269Z,12.80
2023-05-05T06:20:17.368Z,12.30
2023-05-05T06:23:20.185Z,12.20
2023-05-05T06:26:27.584Z,11.20
2023-05-05T06:29:30.329Z,10.70
2023-05-05T06:32:33.267Z,9.80
2023-05-05T06:35:36.195Z,10.20
2023-05-05T06:38:38.895Z,10.60
2023-05-05T06:41:41.870Z,9.20
2023-05-05T06:44:44.597Z,9.60
2023-05-05T06:47:47.420Z,8.90
2023-05-05T06:50:50.332Z,9.60
2023-05-05T06:53:53.039Z,8.90
2023-05-05T06:56:57.525Z,8.70
2023-05-05T07:00:19.769Z,8.40
2023-05-05T07:03:22.563Z,7.30
2023-05-05T07:06:25.351Z,6.50
2023-05-05T07:09:28.123Z,6.20
2023-05-05T07:12:31.331Z,6.90
2023-05-05T07:15:34.643Z,6.50
2023-05-05T07:18:37.488Z,7.00
2023-05-05T07:21:40.210Z,6.20
2023-05-05T07:24:42.917Z,5.90
2023-05-05T07:27:45.866Z,9.40
2023-05-05T07:30:48.686Z,5.70
2023-05-05T07:33:51.734Z,7.40
2023-05-05T07:36:56.439Z,6.70
2023-05-05T07:39:59.150Z,6.20
2023-05-05T07:43:02.027Z,6.50
2023-05-05T07:46:04.872Z,6.10
2023-05-05T07:49:07.765Z,6.80
2023-05-05T07:52:10.636Z,6.50
2023-05-05T07:55:13.432Z,6.10
2023-05-05T07:58:16.325Z,7.70
2023-05-05T08:01:19.314Z,6.70
2023-05-05T08:04:22.150Z,6.50
2023-05-05T08:07:25.024Z,6.40
2023-05-05T08:10:27.838Z,6.50
2023-05-05T08:13:31.125Z,6.30
2023-05-05T08:16:34.486Z,6.20
2023-05-05T08:19:37.459Z,6.50
2023-05-05T08:22:42.036Z,6.40
2023-05-05T08:25:44.794Z,7.00
2023-05-05T08:28:48.694Z,8.50
2023-05-05T08:31:51.524Z,6.80
2023-05-05T08:34:54.463Z,6.80
2023-05-05T08:37:59.099Z,6.70
2023-05-05T08:41:02.149Z,7.20
2023-05-05T08:44:05.044Z,6.40
2023-05-05T08:47:11.198Z,5.00
2023-05-05T08:50:14.148Z,4.80
2023-05-05T08:53:21.937Z,4.00
2023-05-05T08:56:33.136Z,5.10
2023-05-05T08:59:37.287Z,6.80
2023-05-05T09:02:42.887Z,4.80
2023-05-05T09:05:45.897Z,4.30
2023-05-05T09:08:49.644Z,4.50
2023-05-05T09:11:53.877Z,4.30
2023-05-05T09:14:58.981Z,4.50
2023-05-05T09:18:02.462Z,4.60
2023-05-05T09:21:25.993Z,5.50
2023-05-05T09:24:28.895Z,3.70
2023-05-05T09:27:36.472Z,4.60
2023-05-05T09:30:41.181Z,4.30
2023-05-05T09:33:44.235Z,4.80
2023-05-05T09:36:48.931Z,4.70
2023-05-05T09:39:56.201Z,6.50
2023-05-05T09:43:02.963Z,5.10
2023-05-05T09:46:07.723Z,3.80
2023-05-05T09:49:23.401Z,3.80
2023-05-05T09:52:26.848Z,5.40
2023-05-05T09:55:33.375Z,3.60
2023-05-05T09:58:36.527Z,4.30
2023-05-05T10:01:39.533Z,3.80
2023-05-05T10:04:43.846Z,3.40
2023-05-05T10:07:48.106Z,3.60
2023-05-05T10:11:00.576Z,4.00
2023-05-05T10:14:06.520Z,4.20
2023-05-05T10:17:10.135Z,3.20
2023-05-05T10:20:14.433Z,2.90
2023-05-05T10:23:20.806Z,2.90
2023-05-05T10:26:26.733Z,3.20
2023-05-05T10:29:52.873Z,2.50
2023-05-05T10:33:26.721Z,3.40
2023-05-05T10:36:27.932Z,3.10
2023-05-05T10:39:31.531Z,4.10
2023-05-05T10:42:37.371Z,3.50
2023-05-05T10:45:41.512Z,3.40
2023-05-05T10:48:56.603Z,3.80
2023-05-05T10:52:12.716Z,3.40
2023-05-05T10:55:31.876Z,3.40
2023-05-05T10:58:58.339Z,3.80
2023-05-05T11:02:18.209Z,3.60
2023-05-05T11:05:23.799Z,2.60
2023-05-05T11:08:27.174Z,3.40
2023-05-05T11:12:02.956Z,3.50
2023-05-05T11:15:24.251Z,3.70
2023-05-05T11:18:43.305Z,3.40
2023-05-05T11:22:02.285Z,3.70
2023-05-05T11:25:37.528Z,4.20
2023-05-05T11:29:02.218Z,3.80
2023-05-05T11:32:15.886Z,3.30
2023-05-05T11:35:18.983Z,3.50
2023-05-05T11:38:44.675Z,3.20
2023-05-05T11:42:22.556Z,3.20
2023-05-05T11:45:25.793Z,3.30
2023-05-05T11:48:28.585Z,3.70
2023-05-05T11:51:31.881Z,3.30
2023-05-05T11:54:36.747Z,3.90
2023-05-05T11:57:39.565Z,3.50
2023-05-05T12:00:42.340Z,3.50
2023-05-05T12:03:46.005Z,3.40
2023-05-05T12:06:49.378Z,3.70
2023-05-05T12:09:52.978Z,4.60
2023-05-05T12:12:56.100Z,3.10
2023-05-05T12:16:16.537Z,4.00
2023-05-05T12:19:19.302Z,3.80
2023-05-05T12:22:26.464Z,3.70
2023-05-05T12:25:36.995Z,4.10
2023-05-05T12:28:46.482Z,3.90
2023-05-05T12:31:49.504Z,3.90
2023-05-05T12:34:54.880Z,4.70
2023-05-05T12:37:58.584Z,3.70
2023-05-05T12:41:02.526Z,4.50
2023-05-05T12:44:05.435Z,5.20
2023-05-05T12:47:08.718Z,5.10
2023-05-05T12:50:11.552Z,6.10
2023-05-05T12:53:24.899Z,5.40
2023-05-05T12:56:34.911Z,5.90
2023-05-05T12:59:37.697Z,5.90
2023-05-05T13:02:40.657Z,6.30
2023-05-05T13:05:43.743Z,9.20
2023-05-05T13:08:46.720Z,10.20
2023-05-05T13:11:49.496Z,8.90
2023-05-05T13:14:52.212Z,8.00
2023-05-05T13:18:01.704Z,7.00
2023-05-05T13:21:04.770Z,6.90
2023-05-05T13:24:25.325Z,5.90
2023-05-05T13:27:30.629Z,6.70
2023-05-05T13:30:33.504Z,6.00
2023-05-05T13:33:36.264Z,5.80
2023-05-05T13:36:39.029Z,7.20
2023-05-05T13:39:41.832Z,6.30
2023-05-05T13:42:44.618Z,5.90
2023-05-05T13:45:47.372Z,5.70
2023-05-05T13:48:52.498Z,5.00
2023-05-05T13:51:59.159Z,5.60
2023-05-05T13:55:01.874Z,5.50
2023-05-05T13:58:04.719Z,4.50
2023-05-05T14:01:07.487Z,6.00
2023-05-05T14:04:10.594Z,5.80
2023-05-05T14:07:13.435Z,4.10
2023-05-05T14:10:16.217Z,5.60
2023-05-05T14:13:19.206Z,5.40
2023-05-05T14:16:22.117Z,5.70
2023-05-05T14:19:25.061Z,5.40
2023-05-05T14:22:27.804Z,5.90
2023-05-05T14:25:30.503Z,5.20
2023-05-05T14:28:33.305Z,5.00
2023-05-05T14:31:36.839Z,5.00
2023-05-05T14:34:39.794Z,5.10
2023-05-05T14:37:42.568Z,4.90
2023-05-05T14:40:45.389Z,4.90
2023-05-05T14:43:48.083Z,4.70
2023-05-05T14:46:51.347Z,4.80
2023-05-05T14:49:54.210Z,4.70
2023-05-05T14:52:56.992Z,4.50
2023-05-05T14:56:01.080Z,4.60
2023-05-05T14:59:03.813Z,4.80
2023-05-05T15:02:07.245Z,4.70
2023-05-05T15:05:10.387Z,4.60
2023-05-05T15:08:14.600Z,5.00
2023-05-05T15:11:17.363Z,4.60
2023-05-05T15:14:20.160Z,4.80
2023-05-05T15:17:23.008Z,4.60
2023-05-05T15:20:25.844Z,4.70
2023-05-05T15:23:28.601Z,4.50
2023-05-05T15:26:31.963Z,4.70
2023-05-05T15:29:34.853Z,4.80
2023-05-05T15:32:37.993Z,4.00
2023-05-05T15:35:40.711Z,4.80
2023-05-05T15:38:43.623Z,5.00
2023-05-05T15:41:46.383Z,4.70
2023-05-05T15:44:49.164Z,4.80
2023-05-05T15:47:52.972Z,4.50
2023-05-05T15:50:55.918Z,4.70
2023-05-05T15:53:59.543Z,4.80
2023-05-05T15:57:03.219Z,4.60
2023-05-05T16:00:07.979Z,5.20
2023-05-05T16:03:10.782Z,4.50
2023-05-05T16:06:13.828Z,4.30
2023-05-05T16:09:16.607Z,4.50
2023-05-05T16:12:20.989Z,5.40
2023-05-05T16:15:23.772Z,4.70
2023-05-05T16:18:26.837Z,4.80
2023-05-05T16:21:29.561Z,5.80
2023-05-05T16:24:32.472Z,5.30
2023-05-05T16:27:35.549Z,4.90
2023-05-05T16:30:39.837Z,4.90
2023-05-05T16:33:43.836Z,4.30
2023-05-05T16:36:46.982Z,4.60
2023-05-05T16:39:49.685Z,4.30
2023-05-05T16:42:52.401Z,4.70
2023-05-05T16:45:55.173Z,4.60
2023-05-05T16:48:57.953Z,4.70
2023-05-05T16:52:00.820Z,4.70
2023-05-05T16:55:04.916Z,4.50
2023-05-05T16:58:08.030Z,4.70
2023-05-05T17:01:10.767Z,4.40
2023-05-05T17:04:13.634Z,4.20
2023-05-05T17:07:16.395Z,4.80
2023-05-05T17:10:19.201Z,4.50
2023-05-05T17:13:23.509Z,4.80
2023-05-05T17:16:26.386Z,4.60
2023-05-05T17:19:29.240Z,4.50
2023-05-05T17:22:32.246Z,4.90
2023-05-05T17:25:35.937Z,5.50
2023-05-05T17:28:38.708Z,5.00
2023-05-05T17:31:42.117Z,4.30
2023-05-05T17:34:45.017Z,4.80
2023-05-05T17:37:47.894Z,4.60
2023-05-05T17:40:50.784Z,5.10
2023-05-05T17:43:53.549Z,5.00
2023-05-05T17:46:56.327Z,4.80
2023-05-05T17:49:59.550Z,5.40
2023-05-05T17:53:02.288Z,5.00
2023-05-05T17:56:07.959Z,4.80
2023-05-05T17:59:11.637Z,4.10
2023-05-05T18:02:14.422Z,4.80
2023-05-05T18:05:17.366Z,4.50
2023-05-05T18:08:20.157Z,4.70
2023-05-05T18:11:27.654Z,4.70
2023-05-05T18:14:31.719Z,5.20
2023-05-05T18:17:34.604Z,5.40
2023-05-05T18:20:37.472Z,6.10
2023-05-05T18:23:40.617Z,5.90
2023-05-05T18:26:43.496Z,6.30
2023-05-05T18:29:46.275Z,5.90
2023-05-05T18:32:49.116Z,5.80
2023-05-05T18:35:51.968Z,6.10
2023-05-05T18:38:54.773Z,6.00
2023-05-05T18:41:57.515Z,5.90
2023-05-05T18:45:00.258Z,5.50
2023-05-05T18:48:03.275Z,5.20
2023-05-05T18:51:07.556Z,5.70
2023-05-05T18:54:10.328Z,5.80
2023-05-05T18:57:13.060Z,4.90
2023-05-05T19:00:15.918Z,5.20
2023-05-05T19:03:19.736Z,5.30
2023-05-05T19:06:22.555Z,4.80
2023-05-05T19:09:25.513Z,5.00
2023-05-05T19:12:28.233Z,5.30
2023-05-05T19:15:32.459Z,4.40
2023-05-05T19:18:35.232Z,5.10
2023-05-05T19:21:38.638Z,5.30
2023-05-05T19:24:41.345Z,5.40
2023-05-05T19:27:44.380Z,5.90
2023-05-05T19:30:48.710Z,4.70
2023-05-05T19:33:51.653Z,4.80
2023-05-05T19:36:54.396Z,6.20
2023-05-05T19:39:57.285Z,5.40
2023-05-05T19:42:59.999Z,4.90
2023-05-05T19:46:02.947Z,5.40
2023-05-05T19:49:06.257Z,5.20
2023-05-05T19:52:09.051Z,5.00
2023-05-05T19:55:13.253Z,5.40
2023-05-05T19:58:16.131Z,5.80
2023-05-05T20:01:18.900Z,5.60
2023-05-05T20:04:21.682Z,6.00
2023-05-05T20:07:24.444Z,6.00
2023-05-05T20:10:27.167Z,6.50
2023-05-05T20:13:29.929Z,6.30
2023-05-05T20:16:33.703Z,6.00
2023-05-05T20:19:36.520Z,6.60
2023-05-05T20:22:40.605Z,8.20
2023-05-05T20:25:43.778Z,7.90
2023-05-05T20:28:46.550Z,6.70
2023-05-05T20:31:49.475Z,6.20
2023-05-05T20:34:52.395Z,5.50
2023-05-05T20:37:55.278Z,5.60
2023-05-05T20:40:58.151Z,5.00
2023-05-05T20:44:01.028Z,5.20
2023-05-05T20:47:04.582Z,5.00
2023-05-05T20:50:08.570Z,5.40
2023-05-05T20:53:15.399Z,4.90
2023-05-05T20:56:18.110Z,5.00
2023-05-05T20:59:20.860Z,5.30
2023-05-05T21:02:23.680Z,5.50
2023-05-05T21:05:26.798Z,6.10
2023-05-05T21:08:30.707Z,5.70
2023-05-05T21:11:33.458Z,5.00
2023-05-05T21:14:36.222Z,5.10
2023-05-05T21:17:39.014Z,5.50
2023-05-05T21:20:41.798Z,5.30
2023-05-05T21:23:47.883Z,5.30
2023-05-05T21:26:50.689Z,5.20
2023-05-05T21:29:53.432Z,4.80
2023-05-05T21:32:56.252Z,6.60
2023-05-05T21:35:59.178Z,5.80
2023-05-05T21:39:02.081Z,5.20
2023-05-05T21:42:04.813Z,5.20
2023-05-05T21:45:08.284Z,5.50
2023-05-05T21:48:11.081Z,5.20
2023-05-05T21:51:13.807Z,5.60
2023-05-05T21:54:16.972Z,5.10
2023-05-05T21:57:19.783Z,5.40
2023-05-05T22:00:22.762Z,5.00
2023-05-05T22:03:26.286Z,5.20
2023-05-05T22:06:29.124Z,5.70
2023-05-05T22:09:31.989Z,5.90
2023-05-05T22:12:34.778Z,6.20
2023-05-05T22:15:46.092Z,5.30
2023-05-05T22:18:50.424Z,6.00
2023-05-05T22:21:53.426Z,5.60
2023-05-05T22:24:56.192Z,5.70
2023-05-05T22:27:59.027Z,5.60
2023-05-05T22:31:01.976Z,5.00
2023-05-05T22:34:04.892Z,5.70
2023-05-05T22:37:07.657Z,5.20
2023-05-05T22:40:13.001Z,5.70
2023-05-05T22:43:15.874Z,4.90
2023-05-05T22:46:18.697Z,5.40
2023-05-05T22:49:22.755Z,5.30
2023-05-05T22:52:28.212Z,4.70
2023-05-05T22:55:30.939Z,5.40
2023-05-05T22:58:33.755Z,4.70
2023-05-05T23:01:36.701Z,5.00
2023-05-05T23:04:39.530Z,5.10
2023-05-05T23:07:42.350Z,5.80
2023-05-05T23:10:45.097Z,5.60
2023-05-05T23:13:47.885Z,5.10
2023-05-05T23:16:50.892Z,5.10
2023-05-05T23:19:53.676Z,5.90
2023-05-05T23:22:56.467Z,5.40
2023-05-05T23:25:59.253Z,5.20
2023-05-05T23:29:01.970Z,5.30
2023-05-05T23:32:05.565Z,5.70
2023-05-05T23:35:09.137Z,5.70
2023-05-05T23:38:12.179Z,5.80
2023-05-05T23:41:14.947Z,5.40
2023-05-05T23:44:17.735Z,5.90
2023-05-05T23:47:20.473Z,5.50
2023-05-05T23:50:23.310Z,5.30
2023-05-05T23:53:26.088Z,5.90
2023-05-05T23:56:28.832Z,6.00
2023-05-05T23:59:31.644Z,5.70
